Time;durP1;ratioP1;P1;durP2;ratioP2;P2;SDS_P1;SDS_P2;PMS_P1;PMS_P2;Temp;Humidity;BMP_temperature;BMP_pressure;BME280_temperature;BME280_humidity;BME280_pressure;Samples;Min_cycle;Max_cycle;Signal;HPM_P1;HPM_P2
2021/10/24 00:00:39;;;;;;;;;;;20.50;49.90;;;;;;494820;239;1345;-47
2021/10/24 00:02:40;;;;;;;;;;;20.50;49.90;;;;;;494841;239;1217;-47
2021/10/24 00:04:42;;;;;;;;;;;20.50;49.90;;;;;;494932;239;1120;-47
2021/10/24 00:06:43;;;;;;;;;;;20.50;49.90;;;;;;494761;239;2059;-47
2021/10/24 00:08:44;;;;;;;;;;;20.60;50.00;;;;;;495276;239;974;-47
2021/10/24 00:10:46;;;;;;;;;;;20.50;49.90;;;;;;495315;239;1036;-47
2021/10/24 00:12:47;;;;;;;;;;;20.50;49.90;;;;;;495244;239;1306;-47
2021/10/24 00:14:48;;;;;;;;;;;20.50;49.90;;;;;;495250;239;1077;-47
2021/10/24 00:16:49;;;;;;;;;;;20.50;49.90;;;;;;495157;239;1370;-46
2021/10/24 00:18:51;;;;;;;;;;;20.50;49.90;;;;;;495181;239;2205;-47
2021/10/24 00:20:53;;;;;;;;;;;20.50;49.90;;;;;;495025;239;1148;-47
2021/10/24 00:22:53;;;;;;;;;;;20.50;49.90;;;;;;494657;241;2304;-46
2021/10/24 00:24:55;;;;;;;;;;;20.50;49.90;;;;;;495233;239;1113;-47
2021/10/24 00:26:56;;;;;;;;;;;20.50;49.90;;;;;;495159;239;1166;-47
2021/10/24 00:28:57;;;;;;;;;;;20.50;49.90;;;;;;494820;239;1065;-47
2021/10/24 00:30:59;;;;;;;;;;;20.50;49.90;;;;;;494848;239;1052;-47
2021/10/24 00:33:00;;;;;;;;;;;20.50;49.90;;;;;;495230;239;1034;-47
2021/10/24 00:35:02;;;;;;;;;;;20.50;49.80;;;;;;494736;239;1009;-47
2021/10/24 00:37:03;;;;;;;;;;;20.50;49.80;;;;;;494669;239;1189;-47
2021/10/24 00:39:04;;;;;;;;;;;20.50;49.90;;;;;;495259;239;2095;-47
2021/10/24 00:41:06;;;;;;;;;;;20.50;49.80;;;;;;495285;239;1105;-47
2021/10/24 00:43:07;;;;;;;;;;;20.50;49.90;;;;;;494780;239;1180;-47
2021/10/24 00:45:08;;;;;;;;;;;20.50;49.90;;;;;;495022;239;1152;-47
2021/10/24 00:47:10;;;;;;;;;;;20.50;49.90;;;;;;494988;239;1367;-47
2021/10/24 00:49:12;;;;;;;;;;;20.50;49.90;;;;;;494771;239;1232;-47
2021/10/24 00:51:13;;;;;;;;;;;20.50;49.90;;;;;;494670;239;1847;-47
2021/10/24 00:53:14;;;;;;;;;;;20.50;49.80;;;;;;495006;239;1107;-47
2021/10/24 00:55:15;;;;;;;;;;;20.50;49.80;;;;;;495300;239;1039;-47
2021/10/24 00:57:17;;;;;;;;;;;20.50;49.80;;;;;;494865;239;1165;-47
2021/10/24 00:59:18;;;;;;;;;;;20.50;49.80;;;;;;495234;239;2106;-47
2021/10/24 01:01:19;;;;;;;;;;;20.50;49.90;;;;;;494934;239;1326;-47
2021/10/24 01:03:21;;;;;;;;;;;20.50;49.80;;;;;;495215;239;1287;-47
2021/10/24 01:05:22;;;;;;;;;;;20.50;49.80;;;;;;495095;239;1330;-47
2021/10/24 01:07:23;;;;;;;;;;;20.50;49.80;;;;;;494789;239;1223;-47
2021/10/24 01:09:25;;;;;;;;;;;20.50;49.80;;;;;;495212;239;1230;-47
2021/10/24 01:11:26;;;;;;;;;;;20.50;49.80;;;;;;494798;239;1141;-47
2021/10/24 01:13:27;;;;;;;;;;;20.50;49.80;;;;;;494750;241;2158;-47
2021/10/24 01:15:28;;;;;;;;;;;20.50;49.70;;;;;;495237;239;1058;-47
2021/10/24 01:17:30;;;;;;;;;;;20.50;49.70;;;;;;494772;239;1109;-47
2021/10/24 01:19:31;;;;;;;;;;;20.50;49.70;;;;;;494874;239;2187;-47
2021/10/24 01:21:32;;;;;;;;;;;20.50;49.70;;;;;;494984;239;1221;-47
2021/10/24 01:23:34;;;;;;;;;;;20.50;49.80;;;;;;495185;239;1072;-47
2021/10/24 01:25:35;;;;;;;;;;;20.50;49.80;;;;;;494915;239;1071;-47
2021/10/24 01:27:36;;;;;;;;;;;20.50;49.90;;;;;;494738;239;1008;-47
2021/10/24 01:29:38;;;;;;;;;;;20.50;49.80;;;;;;495272;239;1450;-47
2021/10/24 01:31:39;;;;;;;;;;;20.50;49.80;;;;;;495265;239;1290;-47
2021/10/24 01:33:40;;;;;;;;;;;20.50;49.80;;;;;;494816;239;1348;-47
2021/10/24 01:35:42;;;;;;;;;;;20.50;49.70;;;;;;495185;239;1529;-47
2021/10/24 01:37:43;;;;;;;;;;;20.60;49.70;;;;;;494712;239;1178;-47
2021/10/24 01:39:44;;;;;;;;;;;20.50;49.60;;;;;;495244;239;2107;-47
2021/10/24 01:41:46;;;;;;;;;;;20.50;49.70;;;;;;494705;239;1139;-46
2021/10/24 01:43:47;;;;;;;;;;;20.50;49.70;;;;;;495143;239;1083;-47
2021/10/24 01:45:48;;;;;;;;;;;20.50;49.70;;;;;;495163;239;1209;-47
2021/10/24 01:47:50;;;;;;;;;;;20.50;49.70;;;;;;494772;239;1125;-47
2021/10/24 01:49:51;;;;;;;;;;;20.50;49.70;;;;;;495290;239;1053;-47
2021/10/24 01:51:52;;;;;;;;;;;20.50;49.70;;;;;;494944;239;1142;-47
2021/10/24 01:53:54;;;;;;;;;;;20.50;49.70;;;;;;494774;239;1113;-47
2021/10/24 01:55:55;;;;;;;;;;;20.50;49.80;;;;;;494730;239;1410;-47
2021/10/24 01:57:57;;;;;;;;;;;20.50;49.70;;;;;;494919;239;1508;-47
2021/10/24 01:59:58;;;;;;;;;;;20.50;49.70;;;;;;494833;239;2112;-47
2021/10/24 02:01:59;;;;;;;;;;;20.50;49.70;;;;;;495296;239;1135;-47
2021/10/24 02:04:01;;;;;;;;;;;20.50;49.70;;;;;;495313;239;1019;-46
2021/10/24 02:06:02;;;;;;;;;;;20.50;49.60;;;;;;494948;239;1261;-47
2021/10/24 02:08:03;;;;;;;;;;;20.40;49.70;;;;;;494806;239;1401;-46
2021/10/24 02:10:05;;;;;;;;;;;20.50;49.70;;;;;;495333;239;1064;-47
2021/10/24 02:12:06;;;;;;;;;;;20.40;49.70;;;;;;495242;239;1188;-46
2021/10/24 02:14:07;;;;;;;;;;;20.50;49.60;;;;;;494831;239;1012;-47
2021/10/24 02:16:09;;;;;;;;;;;20.50;49.60;;;;;;494751;239;1088;-47
2021/10/24 02:18:10;;;;;;;;;;;20.60;49.60;;;;;;495295;239;1158;-47
2021/10/24 02:20:11;;;;;;;;;;;20.50;49.50;;;;;;494815;239;2182;-47
2021/10/24 02:22:13;;;;;;;;;;;20.50;49.60;;;;;;494929;239;1264;-47
2021/10/24 02:24:14;;;;;;;;;;;20.50;49.60;;;;;;494785;239;982;-47
2021/10/24 02:26:15;;;;;;;;;;;20.50;49.60;;;;;;494744;239;1135;-46
2021/10/24 02:28:17;;;;;;;;;;;20.50;49.60;;;;;;495025;239;1044;-47
2021/10/24 02:30:18;;;;;;;;;;;20.50;49.70;;;;;;495286;239;1071;-47
2021/10/24 02:32:19;;;;;;;;;;;20.50;49.60;;;;;;495272;239;1111;-47
2021/10/24 02:34:21;;;;;;;;;;;20.40;49.60;;;;;;495287;239;956;-47
2021/10/24 02:36:22;;;;;;;;;;;20.40;49.70;;;;;;494936;239;1291;-46
2021/10/24 02:38:23;;;;;;;;;;;20.40;49.60;;;;;;494815;239;1155;-47
2021/10/24 02:40:24;;;;;;;;;;;20.40;49.70;;;;;;495287;239;2194;-47
2021/10/24 02:42:26;;;;;;;;;;;20.50;49.70;;;;;;495267;239;1185;-46
2021/10/24 02:44:27;;;;;;;;;;;20.40;49.70;;;;;;494993;239;1033;-46
2021/10/24 02:46:28;;;;;;;;;;;20.40;49.70;;;;;;495158;239;1129;-47
2021/10/24 02:48:30;;;;;;;;;;;20.40;49.70;;;;;;494786;239;1016;-47
2021/10/24 02:50:31;;;;;;;;;;;20.40;49.60;;;;;;495224;239;1171;-47
2021/10/24 02:52:32;;;;;;;;;;;20.40;49.60;;;;;;494866;239;1192;-47
2021/10/24 02:54:34;;;;;;;;;;;20.50;49.70;;;;;;495273;239;1040;-47
2021/10/24 02:56:35;;;;;;;;;;;20.40;49.50;;;;;;494705;239;1191;-46
2021/10/24 02:58:36;;;;;;;;;;;20.50;49.60;;;;;;495265;239;1169;-46
2021/10/24 03:00:38;;;;;;;;;;;20.50;49.60;;;;;;495210;239;2181;-46
2021/10/24 03:02:39;;;;;;;;;;;20.50;49.50;;;;;;494724;239;1262;-46
2021/10/24 03:04:40;;;;;;;;;;;20.50;49.60;;;;;;494813;239;1076;-46
2021/10/24 03:06:42;;;;;;;;;;;20.50;49.50;;;;;;494699;239;1243;-47
2021/10/24 03:08:43;;;;;;;;;;;20.50;49.50;;;;;;494788;239;1226;-47
2021/10/24 03:10:44;;;;;;;;;;;20.50;49.60;;;;;;494745;239;1130;-47
2021/10/24 03:12:46;;;;;;;;;;;20.50;49.50;;;;;;494737;239;1045;-47
2021/10/24 03:14:48;;;;;;;;;;;20.50;49.50;;;;;;495098;239;1061;-47
2021/10/24 03:16:49;;;;;;;;;;;20.40;49.50;;;;;;495248;239;1263;-47
2021/10/24 03:18:50;;;;;;;;;;;20.50;49.50;;;;;;494996;239;1039;-46
2021/10/24 03:20:51;;;;;;;;;;;20.50;49.40;;;;;;495237;239;2114;-47
2021/10/24 03:22:53;;;;;;;;;;;20.50;49.50;;;;;;495184;239;1121;-47
2021/10/24 03:24:54;;;;;;;;;;;20.50;49.50;;;;;;494781;239;1046;-47
2021/10/24 03:26:56;;;;;;;;;;;20.50;49.50;;;;;;494941;239;1139;-47
2021/10/24 03:28:57;;;;;;;;;;;20.40;49.50;;;;;;494754;239;1928;-47
2021/10/24 03:30:58;;;;;;;;;;;20.40;49.50;;;;;;495255;239;1013;-47
2021/10/24 03:32:59;;;;;;;;;;;20.50;49.40;;;;;;495237;239;1132;-47
2021/10/24 03:35:01;;;;;;;;;;;20.50;49.40;;;;;;495224;239;980;-47
2021/10/24 03:37:02;;;;;;;;;;;20.50;49.50;;;;;;495144;239;1211;-47
2021/10/24 03:39:03;;;;;;;;;;;20.50;49.50;;;;;;494899;239;1471;-47
2021/10/24 03:41:05;;;;;;;;;;;20.50;49.50;;;;;;495170;239;2182;-47
2021/10/24 03:43:06;;;;;;;;;;;20.50;49.40;;;;;;494951;239;1173;-47
2021/10/24 03:45:08;;;;;;;;;;;20.50;49.50;;;;;;495245;239;1060;-47
2021/10/24 03:47:09;;;;;;;;;;;20.50;49.40;;;;;;495172;239;1341;-47
2021/10/24 03:49:10;;;;;;;;;;;20.50;49.50;;;;;;494810;239;1036;-47
2021/10/24 03:51:11;;;;;;;;;;;20.50;49.40;;;;;;495082;239;1281;-47
2021/10/24 03:53:13;;;;;;;;;;;20.50;49.40;;;;;;495167;239;1240;-47
2021/10/24 03:55:14;;;;;;;;;;;20.50;49.40;;;;;;494759;239;1146;-46
2021/10/24 03:57:16;;;;;;;;;;;20.50;49.50;;;;;;495171;239;1698;-47
2021/10/24 03:59:17;;;;;;;;;;;20.50;49.40;;;;;;494990;241;1935;-47
2021/10/24 04:01:18;;;;;;;;;;;20.50;49.40;;;;;;494855;239;2178;-47
2021/10/24 04:03:19;;;;;;;;;;;20.50;49.40;;;;;;495256;239;1218;-47
2021/10/24 04:05:21;;;;;;;;;;;20.50;49.40;;;;;;495288;239;1124;-47
2021/10/24 04:07:22;;;;;;;;;;;20.50;49.40;;;;;;495267;239;1294;-47
2021/10/24 04:09:24;;;;;;;;;;;20.50;49.30;;;;;;494952;239;1214;-47
2021/10/24 04:11:25;;;;;;;;;;;20.50;49.30;;;;;;495160;239;1259;-47
2021/10/24 04:13:26;;;;;;;;;;;20.50;49.30;;;;;;494966;239;1155;-47
2021/10/24 04:15:28;;;;;;;;;;;20.50;49.40;;;;;;494779;239;1106;-47
2021/10/24 04:17:29;;;;;;;;;;;20.50;49.40;;;;;;494765;239;1275;-46
2021/10/24 04:19:30;;;;;;;;;;;20.40;49.30;;;;;;495283;239;2166;-47
2021/10/24 04:21:32;;;;;;;;;;;20.50;49.30;;;;;;495171;239;1252;-47
2021/10/24 04:23:33;;;;;;;;;;;20.50;49.30;;;;;;495158;239;1141;-47
2021/10/24 04:25:34;;;;;;;;;;;20.50;49.40;;;;;;494748;239;1340;-47
2021/10/24 04:27:36;;;;;;;;;;;20.50;49.30;;;;;;494653;239;1153;-47
2021/10/24 04:29:37;;;;;;;;;;;20.50;49.20;;;;;;495253;239;1057;-47
2021/10/24 04:31:38;;;;;;;;;;;20.50;49.30;;;;;;495005;239;1267;-47
2021/10/24 04:33:40;;;;;;;;;;;20.40;49.30;;;;;;495270;239;1092;-47
2021/10/24 04:35:41;;;;;;;;;;;20.50;49.40;;;;;;494830;239;1367;-46
2021/10/24 04:37:42;;;;;;;;;;;20.50;49.30;;;;;;494760;239;1101;-47
2021/10/24 04:39:44;;;;;;;;;;;20.50;49.30;;;;;;494733;239;2190;-47
2021/10/24 04:41:45;;;;;;;;;;;20.50;49.30;;;;;;494854;239;1112;-47
2021/10/24 04:43:47;;;;;;;;;;;20.50;49.30;;;;;;495122;239;1060;-47
2021/10/24 04:45:48;;;;;;;;;;;20.50;49.30;;;;;;495186;239;1115;-47
2021/10/24 04:47:49;;;;;;;;;;;20.50;49.30;;;;;;494898;239;1111;-47
2021/10/24 04:49:50;;;;;;;;;;;20.50;49.40;;;;;;495031;239;1080;-47
2021/10/24 04:51:52;;;;;;;;;;;20.50;49.30;;;;;;494960;239;1140;-47
2021/10/24 04:53:53;;;;;;;;;;;20.50;49.30;;;;;;494777;239;1159;-47
2021/10/24 04:55:55;;;;;;;;;;;20.40;49.30;;;;;;495228;239;1357;-47
2021/10/24 04:57:56;;;;;;;;;;;20.50;49.30;;;;;;495164;239;1191;-47
2021/10/24 04:59:57;;;;;;;;;;;20.50;49.30;;;;;;494787;239;2136;-47
2021/10/24 05:01:58;;;;;;;;;;;20.50;49.20;;;;;;494957;239;1455;-46
2021/10/24 05:04:00;;;;;;;;;;;20.50;49.30;;;;;;495249;239;1087;-47
2021/10/24 05:06:01;;;;;;;;;;;20.50;49.20;;;;;;494903;239;1274;-47
2021/10/24 05:08:02;;;;;;;;;;;20.50;49.20;;;;;;494965;239;1176;-47
2021/10/24 05:10:04;;;;;;;;;;;20.50;49.20;;;;;;495004;239;1204;-47
2021/10/24 05:12:05;;;;;;;;;;;20.50;49.10;;;;;;494702;239;1322;-46
2021/10/24 05:14:08;;;;;;;;;;;20.50;49.10;;;;;;494773;239;1205;-47
2021/10/24 05:16:09;;;;;;;;;;;20.50;49.20;;;;;;494725;239;1329;-47
2021/10/24 05:18:10;;;;;;;;;;;20.50;49.20;;;;;;494812;239;1229;-47
2021/10/24 05:20:11;;;;;;;;;;;20.50;49.20;;;;;;495275;239;2107;-47
2021/10/24 05:22:13;;;;;;;;;;;20.50;49.20;;;;;;494826;239;1349;-47
2021/10/24 05:24:14;;;;;;;;;;;20.50;49.20;;;;;;494777;239;1232;-47
2021/10/24 05:26:15;;;;;;;;;;;20.50;49.20;;;;;;495217;239;1384;-47
2021/10/24 05:28:17;;;;;;;;;;;20.50;49.20;;;;;;494920;239;1215;-47
2021/10/24 05:30:18;;;;;;;;;;;20.50;49.10;;;;;;495235;239;1078;-47
2021/10/24 05:32:19;;;;;;;;;;;20.50;49.10;;;;;;494958;239;1303;-47
2021/10/24 05:34:20;;;;;;;;;;;20.50;49.20;;;;;;494853;239;952;-46
2021/10/24 05:36:22;;;;;;;;;;;20.50;49.10;;;;;;495218;239;1320;-47
2021/10/24 05:38:24;;;;;;;;;;;20.50;49.20;;;;;;494802;239;1204;-47
2021/10/24 05:40:25;;;;;;;;;;;20.50;49.10;;;;;;494755;239;2199;-47
2021/10/24 05:42:26;;;;;;;;;;;20.50;49.10;;;;;;494707;239;1144;-47
2021/10/24 05:44:27;;;;;;;;;;;20.50;49.10;;;;;;494812;239;959;-47
2021/10/24 05:46:29;;;;;;;;;;;20.50;49.10;;;;;;494996;239;1206;-47
2021/10/24 05:48:30;;;;;;;;;;;20.50;49.20;;;;;;495339;239;1370;-47
2021/10/24 05:50:31;;;;;;;;;;;20.50;49.10;;;;;;494838;239;1343;-46
2021/10/24 05:52:33;;;;;;;;;;;20.50;49.10;;;;;;494808;239;1289;-47
2021/10/24 05:54:34;;;;;;;;;;;20.50;49.10;;;;;;495283;239;1295;-47
2021/10/24 05:56:35;;;;;;;;;;;20.50;49.10;;;;;;495250;239;1266;-47
2021/10/24 05:58:37;;;;;;;;;;;20.50;49.10;;;;;;494956;239;1214;-47
2021/10/24 06:00:38;;;;;;;;;;;20.40;49.10;;;;;;494754;239;2124;-47
2021/10/24 06:02:39;;;;;;;;;;;20.40;49.20;;;;;;494812;239;1226;-47
2021/10/24 06:04:41;;;;;;;;;;;20.40;49.20;;;;;;494821;239;1025;-46
2021/10/24 06:06:42;;;;;;;;;;;20.50;49.20;;;;;;494868;239;1211;-47
2021/10/24 06:08:43;;;;;;;;;;;20.40;49.10;;;;;;495318;239;1054;-46
2021/10/24 06:10:44;;;;;;;;;;;20.40;49.10;;;;;;495042;239;1168;-46
2021/10/24 06:12:51;;;;;;;;;;;20.40;49.20;;;;;;495233;239;1169;-47
2021/10/24 06:14:47;;;;;;;;;;;20.50;49.20;;;;;;494939;241;1569;-47
2021/10/24 06:16:48;;;;;;;;;;;20.50;49.10;;;;;;494642;239;1232;-47
2021/10/24 06:18:50;;;;;;;;;;;20.40;49.10;;;;;;494818;239;1114;-47
2021/10/24 06:20:51;;;;;;;;;;;20.40;49.10;;;;;;495135;239;2186;-46
2021/10/24 06:22:53;;;;;;;;;;;20.40;49.20;;;;;;494820;239;1026;-47
2021/10/24 06:24:54;;;;;;;;;;;20.40;49.10;;;;;;494849;239;1161;-47
2021/10/24 06:26:55;;;;;;;;;;;20.40;49.10;;;;;;495184;239;1234;-47
2021/10/24 06:28:56;;;;;;;;;;;20.50;49.10;;;;;;494942;239;1049;-47
2021/10/24 06:30:58;;;;;;;;;;;20.50;49.10;;;;;;494789;239;1403;-47
2021/10/24 06:32:59;;;;;;;;;;;20.40;49.10;;;;;;495238;239;1089;-46
2021/10/24 06:35:01;;;;;;;;;;;20.40;49.10;;;;;;495305;239;1037;-47
2021/10/24 06:37:02;;;;;;;;;;;20.40;49.10;;;;;;495261;239;1071;-47
2021/10/24 06:39:04;;;;;;;;;;;20.40;49.20;;;;;;494774;239;1187;-47
2021/10/24 06:41:05;;;;;;;;;;;20.40;49.10;;;;;;495015;239;2197;-47
2021/10/24 06:43:06;;;;;;;;;;;20.50;49.10;;;;;;494778;239;1073;-47
2021/10/24 06:45:08;;;;;;;;;;;20.40;49.00;;;;;;494891;239;984;-47
2021/10/24 06:47:09;;;;;;;;;;;20.40;49.00;;;;;;494955;239;1285;-47
2021/10/24 06:49:10;;;;;;;;;;;20.50;49.10;;;;;;495284;239;1031;-47
2021/10/24 06:51:11;;;;;;;;;;;20.40;49.00;;;;;;495106;239;1139;-47
2021/10/24 06:53:13;;;;;;;;;;;20.40;49.00;;;;;;494941;239;1142;-47
2021/10/24 06:55:16;;;;;;;;;;;20.40;49.10;;;;;;495299;237;1313;-47
2021/10/24 06:57:15;;;;;;;;;;;20.40;49.00;;;;;;494808;241;1663;-46
2021/10/24 06:59:17;;;;;;;;;;;20.50;49.00;;;;;;494965;239;1051;-46
2021/10/24 07:01:18;;;;;;;;;;;20.50;49.00;;;;;;494716;239;2187;-47
2021/10/24 07:03:20;;;;;;;;;;;20.40;49.00;;;;;;494796;239;1235;-47
2021/10/24 07:05:21;;;;;;;;;;;20.40;49.10;;;;;;494796;241;1265;-47
2021/10/24 07:07:24;;;;;;;;;;;20.40;49.00;;;;;;494772;239;1142;-47
2021/10/24 07:09:25;;;;;;;;;;;20.40;49.00;;;;;;495311;239;1046;-47
2021/10/24 07:11:26;;;;;;;;;;;20.40;49.00;;;;;;494800;239;1497;-47
2021/10/24 07:13:28;;;;;;;;;;;20.50;49.00;;;;;;495253;239;1240;-47
2021/10/24 07:15:29;;;;;;;;;;;20.40;49.00;;;;;;494972;239;1377;-47
2021/10/24 07:17:30;;;;;;;;;;;20.40;49.00;;;;;;495088;239;1238;-47
2021/10/24 07:19:31;;;;;;;;;;;20.40;48.90;;;;;;495230;239;1067;-46
2021/10/24 07:21:33;;;;;;;;;;;20.40;49.00;;;;;;494945;239;2190;-47
2021/10/24 07:23:34;;;;;;;;;;;20.40;49.00;;;;;;494855;239;1206;-47
2021/10/24 07:25:35;;;;;;;;;;;20.40;49.00;;;;;;495245;239;1146;-47
2021/10/24 07:27:37;;;;;;;;;;;20.40;49.00;;;;;;495243;239;1205;-47
2021/10/24 07:29:38;;;;;;;;;;;20.40;49.00;;;;;;494856;239;1073;-47
2021/10/24 07:31:39;;;;;;;;;;;20.40;49.00;;;;;;495137;239;1198;-47
2021/10/24 07:33:41;;;;;;;;;;;20.40;49.10;;;;;;495134;239;1022;-47
2021/10/24 07:35:42;;;;;;;;;;;20.50;49.00;;;;;;494825;239;1131;-47
2021/10/24 07:37:43;;;;;;;;;;;20.50;49.00;;;;;;495256;239;1254;-47
2021/10/24 07:39:45;;;;;;;;;;;20.40;49.00;;;;;;495292;239;1037;-46
2021/10/24 07:41:46;;;;;;;;;;;20.40;49.00;;;;;;494888;239;2201;-47
2021/10/24 07:43:47;;;;;;;;;;;20.40;49.00;;;;;;495166;239;1016;-47
2021/10/24 07:45:49;;;;;;;;;;;20.50;49.00;;;;;;495187;239;1056;-47
2021/10/24 07:47:51;;;;;;;;;;;20.40;49.00;;;;;;495147;239;1242;-47
2021/10/24 07:49:51;;;;;;;;;;;20.40;49.00;;;;;;494770;241;2334;-47
2021/10/24 07:51:53;;;;;;;;;;;20.40;49.00;;;;;;494783;239;1150;-47
2021/10/24 07:53:54;;;;;;;;;;;20.40;49.00;;;;;;495268;239;1076;-47
2021/10/24 07:55:56;;;;;;;;;;;20.40;49.00;;;;;;495230;239;1131;-47
2021/10/24 07:57:57;;;;;;;;;;;20.40;49.00;;;;;;494722;239;1413;-47
2021/10/24 07:59:58;;;;;;;;;;;20.40;49.00;;;;;;495177;239;1086;-47
2021/10/24 08:02:00;;;;;;;;;;;20.40;49.00;;;;;;495064;239;2186;-47
2021/10/24 08:04:01;;;;;;;;;;;20.40;49.00;;;;;;495167;239;1068;-47
2021/10/24 08:06:02;;;;;;;;;;;20.40;49.00;;;;;;495043;239;1157;-47
2021/10/24 08:08:03;;;;;;;;;;;20.40;49.00;;;;;;495060;239;1133;-47
2021/10/24 08:10:05;;;;;;;;;;;20.40;49.00;;;;;;495224;239;1116;-47
2021/10/24 08:12:06;;;;;;;;;;;20.40;49.00;;;;;;494700;237;1521;-47
2021/10/24 08:14:07;;;;;;;;;;;20.40;49.00;;;;;;494720;239;1077;-47
2021/10/24 08:16:09;;;;;;;;;;;20.40;48.90;;;;;;494843;239;1118;-47
2021/10/24 08:18:10;;;;;;;;;;;20.40;49.00;;;;;;494707;239;1519;-47
2021/10/24 08:20:11;;;;;;;;;;;20.40;48.90;;;;;;495101;239;978;-46
2021/10/24 08:22:13;;;;;;;;;;;20.40;49.00;;;;;;494728;239;2127;-47
2021/10/24 08:24:14;;;;;;;;;;;20.40;49.10;;;;;;495074;239;1018;-47
2021/10/24 08:26:15;;;;;;;;;;;20.40;49.10;;;;;;494713;239;1348;-47
2021/10/24 08:28:17;;;;;;;;;;;20.40;49.00;;;;;;494720;239;1184;-47
2021/10/24 08:30:18;;;;;;;;;;;20.50;49.00;;;;;;494750;239;1065;-47
2021/10/24 08:32:19;;;;;;;;;;;20.40;48.90;;;;;;494710;239;1083;-47
2021/10/24 08:34:21;;;;;;;;;;;20.40;48.90;;;;;;494756;239;1166;-46
2021/10/24 08:36:22;;;;;;;;;;;20.40;49.00;;;;;;495083;239;1322;-47
2021/10/24 08:38:24;;;;;;;;;;;20.40;49.00;;;;;;494725;239;1009;-47
2021/10/24 08:40:25;;;;;;;;;;;20.40;49.00;;;;;;494755;239;1165;-47
2021/10/24 08:42:28;;;;;;;;;;;20.40;48.90;;;;;;494989;239;2107;-47
2021/10/24 08:44:28;;;;;;;;;;;20.50;49.00;;;;;;494948;241;2068;-47
2021/10/24 08:46:29;;;;;;;;;;;20.40;49.00;;;;;;495036;239;1309;-47
2021/10/24 08:48:31;;;;;;;;;;;20.40;49.00;;;;;;494758;239;1001;-47
2021/10/24 08:50:32;;;;;;;;;;;20.40;49.00;;;;;;495202;239;1368;-47
2021/10/24 08:52:33;;;;;;;;;;;20.40;49.00;;;;;;495097;239;1252;-47
2021/10/24 08:54:35;;;;;;;;;;;20.40;48.90;;;;;;495238;239;1005;-47
2021/10/24 08:56:37;;;;;;;;;;;20.40;49.00;;;;;;495215;239;1167;-46
2021/10/24 08:58:37;;;;;;;;;;;20.50;48.90;;;;;;494853;239;2303;-47
2021/10/24 09:00:38;;;;;;;;;;;20.40;48.90;;;;;;495044;239;1040;-46
2021/10/24 09:02:40;;;;;;;;;;;20.40;48.90;;;;;;494669;239;2210;-47
2021/10/24 09:04:41;;;;;;;;;;;20.50;48.90;;;;;;495136;239;1186;-46
2021/10/24 09:06:42;;;;;;;;;;;20.40;48.80;;;;;;494919;239;1117;-47
2021/10/24 09:08:44;;;;;;;;;;;20.40;48.90;;;;;;495247;239;1222;-47
2021/10/24 09:10:46;;;;;;;;;;;20.40;48.90;;;;;;495245;239;1065;-47
2021/10/24 09:12:47;;;;;;;;;;;20.40;48.90;;;;;;494795;239;1437;-47
2021/10/24 09:14:48;;;;;;;;;;;20.40;48.90;;;;;;495139;239;1011;-46
2021/10/24 09:16:50;;;;;;;;;;;20.50;48.90;;;;;;494648;239;1059;-47
2021/10/24 09:18:51;;;;;;;;;;;20.40;48.90;;;;;;494974;239;1086;-47
2021/10/24 09:20:53;;;;;;;;;;;20.40;48.90;;;;;;494678;239;1108;-46
2021/10/24 09:22:54;;;;;;;;;;;20.40;48.90;;;;;;494654;241;2259;-47
2021/10/24 09:24:55;;;;;;;;;;;20.40;48.90;;;;;;494722;239;1193;-47
2021/10/24 09:26:57;;;;;;;;;;;20.40;48.90;;;;;;494916;239;1082;-47
2021/10/24 09:28:58;;;;;;;;;;;20.40;49.00;;;;;;494774;239;1218;-47
2021/10/24 09:30:59;;;;;;;;;;;20.40;49.00;;;;;;494780;239;1284;-47
2021/10/24 09:33:00;;;;;;;;;;;20.40;49.00;;;;;;494668;239;1257;-46
2021/10/24 09:35:02;;;;;;;;;;;20.40;48.90;;;;;;494722;239;989;-47
2021/10/24 09:37:03;;;;;;;;;;;20.50;48.90;;;;;;494599;239;1341;-47
2021/10/24 09:39:04;;;;;;;;;;;20.40;48.80;;;;;;494826;239;1029;-47
2021/10/24 09:41:06;;;;;;;;;;;20.40;48.90;;;;;;494969;239;1205;-47
2021/10/24 09:43:07;;;;;;;;;;;20.40;49.00;;;;;;494992;239;2115;-47
2021/10/24 09:45:09;;;;;;;;;;;20.40;48.90;;;;;;494812;239;1059;-47
2021/10/24 09:47:10;;;;;;;;;;;20.40;48.90;;;;;;494719;239;1653;-47
2021/10/24 09:49:11;;;;;;;;;;;20.40;48.90;;;;;;495064;239;1024;-47
2021/10/24 09:51:13;;;;;;;;;;;20.40;48.90;;;;;;494833;239;1195;-47
2021/10/24 09:53:14;;;;;;;;;;;20.40;48.90;;;;;;494753;239;1001;-46
2021/10/24 09:55:15;;;;;;;;;;;20.50;48.90;;;;;;494769;239;1033;-47
2021/10/24 09:57:16;;;;;;;;;;;20.40;48.80;;;;;;494607;239;1126;-47
2021/10/24 09:59:18;;;;;;;;;;;20.50;48.80;;;;;;494703;239;1163;-47
2021/10/24 10:01:19;;;;;;;;;;;20.40;48.80;;;;;;494639;239;2163;-47
2021/10/24 10:03:20;;;;;;;;;;;20.40;48.80;;;;;;495171;239;2115;-46
2021/10/24 10:05:22;;;;;;;;;;;20.40;48.90;;;;;;494832;239;1045;-47
2021/10/24 10:07:23;;;;;;;;;;;20.40;48.90;;;;;;494651;239;2105;-47
2021/10/24 10:09:24;;;;;;;;;;;20.40;48.90;;;;;;495203;239;1060;-47
2021/10/24 10:11:25;;;;;;;;;;;20.40;48.90;;;;;;495014;239;1205;-47
2021/10/24 10:13:27;;;;;;;;;;;20.40;48.90;;;;;;494747;239;1221;-47
2021/10/24 10:15:28;;;;;;;;;;;20.50;48.90;;;;;;495165;239;1451;-47
2021/10/24 10:17:29;;;;;;;;;;;20.40;48.80;;;;;;494631;239;1221;-47
2021/10/24 10:19:31;;;;;;;;;;;20.50;48.90;;;;;;494744;239;1023;-47
2021/10/24 10:21:33;;;;;;;;;;;20.40;48.80;;;;;;495077;239;1350;-47
2021/10/24 10:23:33;;;;;;;;;;;20.50;48.80;;;;;;494950;239;2210;-46
2021/10/24 10:25:35;;;;;;;;;;;20.50;48.80;;;;;;494825;239;1470;-47
2021/10/24 10:27:38;;;;;;;;;;;20.40;48.90;;;;;;494771;239;1226;-47
2021/10/24 10:29:37;;;;;;;;;;;20.40;48.90;;;;;;494649;241;2133;-47
2021/10/24 10:31:39;;;;;;;;;;;20.40;48.80;;;;;;494808;239;1128;-47
2021/10/24 10:33:40;;;;;;;;;;;20.40;48.90;;;;;;494772;239;1191;-47
2021/10/24 10:35:42;;;;;;;;;;;20.40;48.80;;;;;;495012;239;1072;-47
2021/10/24 10:37:43;;;;;;;;;;;20.40;48.90;;;;;;494644;239;1374;-47
2021/10/24 10:39:45;;;;;;;;;;;20.40;48.90;;;;;;494994;239;1135;-46
2021/10/24 10:41:46;;;;;;;;;;;20.40;48.90;;;;;;495098;239;2108;-46
2021/10/24 10:43:47;;;;;;;;;;;20.40;48.90;;;;;;495063;239;1178;-47
2021/10/24 10:45:49;;;;;;;;;;;20.50;48.80;;;;;;494731;239;1098;-46
2021/10/24 10:47:50;;;;;;;;;;;20.40;48.80;;;;;;495219;239;1189;-47
2021/10/24 10:49:51;;;;;;;;;;;20.40;48.90;;;;;;494887;239;1042;-47
2021/10/24 10:51:53;;;;;;;;;;;20.40;48.90;;;;;;495053;239;1349;-47
2021/10/24 10:53:54;;;;;;;;;;;20.40;48.80;;;;;;494753;239;1189;-46
2021/10/24 10:55:55;;;;;;;;;;;20.40;48.90;;;;;;495225;239;1044;-47
2021/10/24 10:57:57;;;;;;;;;;;20.40;48.80;;;;;;494814;239;1196;-47
2021/10/24 11:00:00;;;;;;;;;;;20.50;48.80;;;;;;494876;239;1202;-47
2021/10/24 11:02:00;;;;;;;;;;;20.40;48.70;;;;;;495000;241;2172;-47
2021/10/24 11:04:01;;;;;;;;;;;20.40;48.80;;;;;;495282;239;1018;-46
2021/10/24 11:06:02;;;;;;;;;;;20.40;48.80;;;;;;494954;239;1188;-47
2021/10/24 11:08:04;;;;;;;;;;;20.40;48.80;;;;;;495111;239;1152;-46
2021/10/24 11:10:05;;;;;;;;;;;20.50;48.80;;;;;;494911;239;1047;-47
2021/10/24 11:12:08;;;;;;;;;;;20.50;48.80;;;;;;495238;239;1294;-47
2021/10/24 11:14:08;;;;;;;;;;;20.40;48.90;;;;;;495028;241;2345;-47
2021/10/24 11:16:09;;;;;;;;;;;20.40;48.80;;;;;;495060;239;1079;-47
2021/10/24 11:18:10;;;;;;;;;;;20.40;48.80;;;;;;494738;239;1241;-47
2021/10/24 11:20:12;;;;;;;;;;;20.50;48.80;;;;;;494746;239;1067;-47
2021/10/24 11:22:13;;;;;;;;;;;20.40;48.90;;;;;;494859;239;2132;-47
2021/10/24 11:24:14;;;;;;;;;;;20.40;48.90;;;;;;494963;239;1006;-47
2021/10/24 11:26:16;;;;;;;;;;;20.40;48.90;;;;;;494731;239;1078;-46
2021/10/24 11:28:17;;;;;;;;;;;20.40;48.90;;;;;;494984;239;1187;-47
2021/10/24 11:30:18;;;;;;;;;;;20.40;48.80;;;;;;494702;239;2091;-47
2021/10/24 11:32:20;;;;;;;;;;;20.40;48.70;;;;;;494632;239;1268;-47
2021/10/24 11:34:21;;;;;;;;;;;20.50;48.80;;;;;;494969;239;1073;-47
2021/10/24 11:36:22;;;;;;;;;;;20.40;48.90;;;;;;494989;239;1173;-46
2021/10/24 11:38:23;;;;;;;;;;;20.40;48.90;;;;;;495179;239;1626;-47
2021/10/24 11:40:25;;;;;;;;;;;20.40;48.90;;;;;;494762;239;1100;-47
2021/10/24 11:42:27;;;;;;;;;;;20.40;48.90;;;;;;494692;239;2187;-47
2021/10/24 11:44:28;;;;;;;;;;;20.40;48.80;;;;;;494995;239;1469;-47
2021/10/24 11:46:29;;;;;;;;;;;20.40;48.90;;;;;;494914;239;1358;-47
2021/10/24 11:48:30;;;;;;;;;;;20.40;48.70;;;;;;495078;239;1072;-47
2021/10/24 11:50:32;;;;;;;;;;;20.40;48.90;;;;;;494980;239;1119;-47
2021/10/24 11:52:33;;;;;;;;;;;20.40;48.80;;;;;;494673;239;1158;-47
2021/10/24 11:54:34;;;;;;;;;;;20.40;48.90;;;;;;495182;239;1047;-47
2021/10/24 11:56:49;;;;;;;;;;;20.40;48.90;;;;;;494989;239;1111;-47